createdAt,value
2017-12-28T00:00:04.832Z,4.00
2017-12-28T00:02:05.906Z,4.00
2017-12-28T00:04:07.619Z,4.10
2017-12-28T00:06:08.602Z,4.00
2017-12-28T00:08:10.406Z,4.10
2017-12-28T00:10:11.383Z,4.00
2017-12-28T00:12:12.355Z,4.00
2017-12-28T00:14:13.391Z,4.00
2017-12-28T00:16:14.392Z,3.90
2017-12-28T00:18:15.418Z,3.90
2017-12-28T00:20:17.193Z,4.00
2017-12-28T00:22:18.191Z,4.00
2017-12-28T00:24:19.174Z,4.10
2017-12-28T00:26:20.882Z,4.10
2017-12-28T00:28:21.934Z,4.00
2017-12-28T00:30:22.931Z,4.10
2017-12-28T00:32:24.650Z,4.10
2017-12-28T00:34:25.625Z,4.10
2017-12-28T00:36:27.374Z,4.10
2017-12-28T00:38:28.448Z,4.00
2017-12-28T00:40:29.515Z,4.10
2017-12-28T00:42:30.497Z,4.10
2017-12-28T00:44:31.645Z,4.10
2017-12-28T00:46:32.639Z,4.10
2017-12-28T00:48:34.378Z,4.20
2017-12-28T00:50:35.385Z,4.10
2017-12-28T00:52:36.416Z,4.20
2017-12-28T00:54:37.429Z,4.20
2017-12-28T00:56:38.463Z,4.20
2017-12-28T00:58:39.497Z,4.20
2017-12-28T01:00:40.504Z,4.10
2017-12-28T01:02:41.510Z,4.10
2017-12-28T01:04:42.578Z,4.10
2017-12-28T01:06:44.355Z,4.10
2017-12-28T01:08:45.330Z,4.10
2017-12-28T01:10:46.323Z,4.10
2017-12-28T01:12:48.059Z,4.20
2017-12-28T01:14:49.025Z,4.20
2017-12-28T01:16:50.013Z,4.20
2017-12-28T01:18:50.990Z,4.20
2017-12-28T01:20:51.931Z,4.30
2017-12-28T01:22:52.938Z,4.40
2017-12-28T01:24:54.706Z,4.50
2017-12-28T01:26:55.682Z,4.50
2017-12-28T01:28:56.692Z,4.50
2017-12-28T01:30:57.698Z,4.60
2017-12-28T01:32:58.861Z,4.60
2017-12-28T01:34:59.834Z,4.60
2017-12-28T01:37:01.509Z,4.60
2017-12-28T01:39:02.546Z,4.60
2017-12-28T01:41:04.323Z,4.70
2017-12-28T01:43:05.315Z,4.70
2017-12-28T01:45:06.460Z,4.70
2017-12-28T01:47:07.453Z,4.70
2017-12-28T01:49:09.185Z,4.80
2017-12-28T01:51:10.137Z,4.70
2017-12-28T01:53:11.142Z,4.80
2017-12-28T01:55:12.106Z,4.80
2017-12-28T01:57:13.034Z,4.70
2017-12-28T01:59:14.028Z,4.60
2017-12-28T02:01:15.791Z,4.40
2017-12-28T02:03:16.774Z,4.40
2017-12-28T02:05:18.470Z,4.20
2017-12-28T02:07:19.546Z,4.20
2017-12-28T02:09:20.550Z,4.20
2017-12-28T02:11:21.547Z,4.10
2017-12-28T02:13:22.567Z,4.00
2017-12-28T02:15:23.624Z,4.00
2017-12-28T02:17:24.643Z,4.00
2017-12-28T02:19:25.649Z,4.00
2017-12-28T02:21:27.405Z,4.00
2017-12-28T02:23:28.389Z,4.00
2017-12-28T02:25:29.362Z,4.00
2017-12-28T02:27:30.439Z,4.00
2017-12-28T02:29:32.172Z,4.00
2017-12-28T02:31:33.206Z,4.00
2017-12-28T02:33:34.153Z,4.00
2017-12-28T02:35:35.190Z,4.00
2017-12-28T02:37:36.227Z,4.00
2017-12-28T02:39:37.200Z,4.00
2017-12-28T02:41:38.216Z,4.00
2017-12-28T02:43:39.186Z,4.00
2017-12-28T02:45:40.254Z,4.00
2017-12-28T02:47:41.240Z,4.00
2017-12-28T02:49:42.936Z,4.00
2017-12-28T02:51:43.991Z,4.00
2017-12-28T02:53:44.925Z,4.00
2017-12-28T02:55:45.942Z,4.00
2017-12-28T02:57:47.692Z,4.00
2017-12-28T02:59:48.656Z,4.00
2017-12-28T03:01:50.817Z,4.00
2017-12-28T03:03:51.838Z,4.00
2017-12-28T03:05:52.814Z,4.00
2017-12-28T03:07:53.857Z,3.90
2017-12-28T03:09:54.829Z,4.00
2017-12-28T03:11:56.524Z,4.00
2017-12-28T03:13:57.514Z,4.00
2017-12-28T03:15:58.510Z,4.00
2017-12-28T03:17:59.551Z,3.90
2017-12-28T03:20:00.535Z,3.90
2017-12-28T03:22:01.481Z,3.80
2017-12-28T03:24:02.542Z,3.80
2017-12-28T03:26:03.606Z,3.70
2017-12-28T03:28:05.361Z,3.70
2017-12-28T03:30:07.110Z,3.60
2017-12-28T03:32:08.071Z,3.60
2017-12-28T03:34:09.041Z,3.60
2017-12-28T03:36:10.083Z,3.60
2017-12-28T03:38:11.116Z,3.60
2017-12-28T03:40:12.904Z,3.70
2017-12-28T03:42:14.668Z,3.70
2017-12-28T03:44:15.709Z,3.70
2017-12-28T03:46:17.494Z,3.70
2017-12-28T03:48:18.465Z,3.70
2017-12-28T03:50:19.540Z,3.70
2017-12-28T03:52:20.513Z,3.70
2017-12-28T03:54:22.193Z,3.70
2017-12-28T03:56:23.258Z,3.70
2017-12-28T03:58:24.208Z,3.70
2017-12-28T04:00:25.289Z,3.70
2017-12-28T04:02:26.276Z,3.60
2017-12-28T04:04:27.954Z,3.70
2017-12-28T04:06:28.958Z,3.60
2017-12-28T04:08:29.902Z,3.70
2017-12-28T04:10:30.850Z,3.70
2017-12-28T04:12:31.874Z,3.70
2017-12-28T04:14:32.848Z,3.70
2017-12-28T04:16:34.556Z,3.70
2017-12-28T04:18:35.665Z,3.70
2017-12-28T04:20:36.695Z,3.70
2017-12-28T04:22:38.691Z,3.70
2017-12-28T04:24:39.728Z,3.70
2017-12-28T04:26:41.545Z,3.70
2017-12-28T04:28:42.506Z,3.60
2017-12-28T04:30:43.486Z,3.60
2017-12-28T04:32:45.217Z,3.60
2017-12-28T04:34:46.174Z,3.50
2017-12-28T04:36:47.153Z,3.50
2017-12-28T04:38:48.149Z,3.50
2017-12-28T04:40:49.123Z,3.50
2017-12-28T04:42:50.846Z,3.40
2017-12-28T04:44:51.874Z,3.40
2017-12-28T04:46:53.592Z,3.30
2017-12-28T04:48:54.605Z,3.30
2017-12-28T04:50:55.667Z,3.30
2017-12-28T04:52:56.635Z,3.30
2017-12-28T04:54:58.447Z,3.30
2017-12-28T04:57:00.418Z,3.30
2017-12-28T04:59:01.460Z,3.30
2017-12-28T05:01:02.528Z,3.40
2017-12-28T05:03:03.508Z,3.30
2017-12-28T05:05:04.492Z,3.30
2017-12-28T05:07:05.525Z,3.30
2017-12-28T05:09:07.261Z,3.30
2017-12-28T05:11:08.307Z,3.20
2017-12-28T05:13:09.314Z,3.30
2017-12-28T05:15:10.337Z,3.30
2017-12-28T05:17:11.322Z,3.20
2017-12-28T05:19:12.276Z,3.20
2017-12-28T05:21:13.269Z,3.20
2017-12-28T05:23:14.993Z,3.30
2017-12-28T05:25:15.984Z,3.20
2017-12-28T05:27:16.945Z,3.30
2017-12-28T05:29:17.893Z,3.30
2017-12-28T05:31:18.848Z,3.20
2017-12-28T05:33:19.817Z,3.20
2017-12-28T05:35:20.779Z,3.20
2017-12-28T05:37:21.742Z,3.20
2017-12-28T05:39:22.670Z,3.20
2017-12-28T05:41:23.612Z,3.20
2017-12-28T05:43:24.627Z,3.30
2017-12-28T05:45:29.043Z,3.30
2017-12-28T05:47:29.998Z,3.30
2017-12-28T05:49:30.936Z,3.30
2017-12-28T05:51:31.937Z,3.30
2017-12-28T05:53:32.913Z,3.30
2017-12-28T05:55:33.890Z,3.30
2017-12-28T05:57:34.843Z,3.30
2017-12-28T05:59:35.780Z,3.30
2017-12-28T06:01:36.733Z,3.30
2017-12-28T06:03:37.688Z,3.20
2017-12-28T06:05:38.643Z,3.20
2017-12-28T06:07:39.589Z,3.20
2017-12-28T06:09:40.561Z,3.20
2017-12-28T06:11:42.288Z,3.20
2017-12-28T06:13:43.242Z,3.20
2017-12-28T06:15:44.205Z,3.10
2017-12-28T06:17:45.167Z,3.10
2017-12-28T06:19:46.875Z,3.10
2017-12-28T06:21:47.851Z,3.10
2017-12-28T06:23:48.828Z,3.10
2017-12-28T06:25:50.514Z,3.10
2017-12-28T06:27:52.225Z,3.00
2017-12-28T06:29:53.173Z,3.00
2017-12-28T06:31:54.141Z,3.00
2017-12-28T06:33:55.856Z,2.90
2017-12-28T06:35:56.801Z,2.90
2017-12-28T06:37:57.739Z,2.90
2017-12-28T06:39:58.681Z,2.90
2017-12-28T06:42:00.369Z,2.90
2017-12-28T06:44:01.367Z,2.90
2017-12-28T06:46:02.314Z,2.90
2017-12-28T06:48:03.324Z,2.90
2017-12-28T06:50:04.309Z,2.90
2017-12-28T06:52:05.255Z,2.80
2017-12-28T06:54:06.231Z,2.90
2017-12-28T06:56:07.175Z,2.90
2017-12-28T06:58:08.112Z,2.90
2017-12-28T07:00:09.063Z,2.80
2017-12-28T07:02:09.987Z,2.80
2017-12-28T07:04:10.917Z,2.80
2017-12-28T07:06:11.957Z,2.80
2017-12-28T07:08:13.653Z,2.70
2017-12-28T07:10:14.610Z,2.70
2017-12-28T07:12:15.574Z,2.70
2017-12-28T07:14:16.522Z,2.70
2017-12-28T07:16:17.458Z,2.70
2017-12-28T07:18:18.381Z,2.70
2017-12-28T07:20:19.345Z,2.70
2017-12-28T07:22:20.294Z,2.70
2017-12-28T07:24:21.263Z,2.70
2017-12-28T07:26:23.039Z,2.70
2017-12-28T07:28:24.745Z,2.70
2017-12-28T07:30:25.725Z,2.70
2017-12-28T07:32:26.662Z,2.70
2017-12-28T07:34:27.590Z,2.70
2017-12-28T07:36:28.517Z,2.70
2017-12-28T07:38:29.478Z,2.70
2017-12-28T07:40:30.449Z,2.70
2017-12-28T07:42:31.411Z,2.70
2017-12-28T07:44:32.393Z,2.70
2017-12-28T07:46:33.479Z,2.80
2017-12-28T07:48:35.171Z,2.80
2017-12-28T07:50:36.259Z,2.80
2017-12-28T07:52:37.240Z,2.80
2017-12-28T07:54:38.385Z,2.80
2017-12-28T07:56:39.387Z,2.90
2017-12-28T07:58:40.354Z,2.90
2017-12-28T08:00:42.074Z,2.90
2017-12-28T08:02:43.834Z,2.90
2017-12-28T08:04:45.586Z,2.90
2017-12-28T08:06:46.655Z,2.90
2017-12-28T08:08:48.368Z,3.00
2017-12-28T08:10:49.362Z,3.00
2017-12-28T08:12:51.112Z,3.00
2017-12-28T08:14:52.102Z,3.00
2017-12-28T08:16:53.108Z,3.10
2017-12-28T08:18:54.115Z,3.10
2017-12-28T08:20:55.110Z,3.10
2017-12-28T08:22:56.150Z,3.10
2017-12-28T08:24:57.902Z,3.10
2017-12-28T08:26:58.965Z,3.10
2017-12-28T08:29:00.682Z,3.20
2017-12-28T08:31:02.375Z,3.20
2017-12-28T08:33:03.330Z,3.20
2017-12-28T08:35:04.271Z,3.30
2017-12-28T08:37:05.247Z,3.30
2017-12-28T08:39:06.920Z,3.30
2017-12-28T08:41:07.862Z,3.30
2017-12-28T08:43:08.829Z,3.40
2017-12-28T08:45:09.798Z,3.40
2017-12-28T08:47:10.770Z,3.50
2017-12-28T08:49:12.062Z,3.50
2017-12-28T08:51:13.150Z,3.60
2017-12-28T08:53:14.137Z,3.60
2017-12-28T08:55:15.114Z,3.70
2017-12-28T08:57:16.830Z,3.80
2017-12-28T08:59:17.840Z,3.80
2017-12-28T09:01:18.790Z,3.80
2017-12-28T09:03:19.774Z,3.90
2017-12-28T09:05:20.721Z,4.00
2017-12-28T09:07:21.767Z,4.20
2017-12-28T09:09:22.950Z,4.50
2017-12-28T09:11:24.722Z,5.10
2017-12-28T09:13:25.773Z,5.10
2017-12-28T09:15:27.484Z,5.70
2017-12-28T09:17:28.478Z,5.70
2017-12-28T09:19:30.328Z,6.30
2017-12-28T09:21:31.330Z,6.30
2017-12-28T09:23:32.294Z,6.60
2017-12-28T09:25:33.406Z,6.60
2017-12-28T09:27:34.358Z,7.10
2017-12-28T09:29:35.747Z,7.60
2017-12-28T09:31:36.717Z,7.80
2017-12-28T09:33:37.871Z,7.50
2017-12-28T09:35:39.586Z,6.50
2017-12-28T09:37:40.594Z,6.50
2017-12-28T09:39:41.592Z,6.10
2017-12-28T09:41:42.722Z,5.70
2017-12-28T09:43:43.720Z,5.50
2017-12-28T09:45:44.883Z,5.20
2017-12-28T09:47:46.607Z,5.00
2017-12-28T09:49:47.587Z,5.00
2017-12-28T09:51:48.590Z,4.90
2017-12-28T09:53:49.793Z,4.70
2017-12-28T09:55:51.504Z,4.60
2017-12-28T09:57:52.461Z,4.60
2017-12-28T09:59:53.520Z,4.60
2017-12-28T10:01:54.517Z,4.50
2017-12-28T10:03:55.461Z,4.40
2017-12-28T10:05:56.574Z,4.50
2017-12-28T10:07:57.678Z,4.40
2017-12-28T10:09:58.646Z,4.40
2017-12-28T10:11:59.707Z,4.40
2017-12-28T10:14:00.679Z,4.40
2017-12-28T10:16:02.679Z,4.40
2017-12-28T10:18:03.627Z,4.40
2017-12-28T10:20:04.809Z,4.40
2017-12-28T10:22:05.803Z,4.40
2017-12-28T10:24:07.494Z,4.50
2017-12-28T10:26:08.454Z,4.50
2017-12-28T10:28:09.422Z,4.60
2017-12-28T10:30:10.389Z,4.60
2017-12-28T10:32:11.362Z,4.60
2017-12-28T10:34:13.215Z,4.80
2017-12-28T10:36:14.199Z,4.90
2017-12-28T10:38:15.135Z,4.90
2017-12-28T10:40:16.078Z,4.90
2017-12-28T10:42:17.123Z,5.10
2017-12-28T10:44:18.078Z,5.20
2017-12-28T10:46:19.056Z,5.40
2017-12-28T10:48:20.018Z,5.70
2017-12-28T10:50:20.974Z,6.00
2017-12-28T10:52:22.235Z,6.30
2017-12-28T10:54:24.011Z,6.50
2017-12-28T10:56:25.087Z,6.40
2017-12-28T10:58:26.046Z,6.60
2017-12-28T11:00:27.010Z,6.40
2017-12-28T11:02:27.957Z,6.60
2017-12-28T11:04:29.070Z,6.60
2017-12-28T11:06:30.185Z,6.50
2017-12-28T11:08:31.210Z,6.40
2017-12-28T11:10:32.194Z,6.50
2017-12-28T11:12:33.156Z,6.90
2017-12-28T11:14:34.096Z,7.10
2017-12-28T11:16:35.148Z,7.00
2017-12-28T11:18:36.283Z,7.30
2017-12-28T11:20:37.222Z,7.50
2017-12-28T11:22:39.073Z,7.70
2017-12-28T11:24:42.616Z,7.60
2017-12-28T11:26:44.051Z,7.60
2017-12-28T11:28:46.027Z,7.30
2017-12-28T11:30:47.139Z,7.20
2017-12-28T11:32:48.129Z,7.70
2017-12-28T11:34:49.145Z,8.20
2017-12-28T11:36:50.168Z,8.50
2017-12-28T11:38:51.159Z,8.80
2017-12-28T11:40:52.114Z,8.80
2017-12-28T11:42:53.186Z,8.90
2017-12-28T11:44:54.209Z,8.80
2017-12-28T11:46:55.518Z,8.60
2017-12-28T11:48:56.526Z,9.00
2017-12-28T11:50:57.496Z,9.00
2017-12-28T11:53:12.322Z,9.40
2017-12-28T11:55:19.478Z,9.80
2017-12-28T11:57:23.351Z,9.80
2017-12-28T11:59:24.415Z,10.10
2017-12-28T12:01:31.536Z,9.90
2017-12-28T12:03:33.575Z,9.60
2017-12-28T12:05:40.734Z,9.60
2017-12-28T12:07:41.745Z,9.10
2017-12-28T12:09:48.528Z,8.40
2017-12-28T12:11:50.262Z,8.60
2017-12-28T12:13:51.246Z,8.60
2017-12-28T12:15:52.970Z,8.40
2017-12-28T12:17:53.958Z,8.40
2017-12-28T12:19:55.898Z,8.10
2017-12-28T12:21:56.915Z,8.00
2017-12-28T12:23:58.610Z,8.50
2017-12-28T12:25:59.648Z,9.00
2017-12-28T12:28:00.678Z,9.20
2017-12-28T12:30:01.631Z,9.10
2017-12-28T12:32:02.583Z,9.40
2017-12-28T12:34:03.743Z,9.00
2017-12-28T12:36:04.805Z,8.80
2017-12-28T12:38:06.664Z,8.30
2017-12-28T12:40:07.620Z,8.50
2017-12-28T12:42:08.934Z,8.60
2017-12-28T12:44:09.922Z,8.80
2017-12-28T12:46:11.635Z,8.40
2017-12-28T12:48:12.613Z,8.40
2017-12-28T12:50:13.771Z,8.00
2017-12-28T12:52:14.889Z,7.60
2017-12-28T12:54:21.142Z,8.20
2017-12-28T12:56:23.012Z,9.40
2017-12-28T12:58:23.955Z,9.40
2017-12-28T13:00:24.920Z,8.90
2017-12-28T13:02:26.474Z,9.70
2017-12-28T13:04:27.499Z,9.80
2017-12-28T13:06:28.458Z,9.90
2017-12-28T13:08:29.816Z,9.80
2017-12-28T13:10:30.981Z,9.50
2017-12-28T13:12:32.083Z,9.10
2017-12-28T13:14:33.837Z,7.70
2017-12-28T13:16:34.854Z,7.70
2017-12-28T13:18:35.826Z,7.40
2017-12-28T13:20:36.783Z,7.20
2017-12-28T13:22:38.539Z,6.60
2017-12-28T13:24:40.258Z,6.60
2017-12-28T13:26:41.272Z,6.40
2017-12-28T13:28:43.155Z,5.90
2017-12-28T13:30:44.122Z,5.90
2017-12-28T13:32:45.921Z,5.70
2017-12-28T13:34:46.865Z,5.70
2017-12-28T13:36:47.877Z,5.50
2017-12-28T13:38:48.958Z,5.40
2017-12-28T13:40:49.926Z,5.30
2017-12-28T13:42:51.623Z,5.30
2017-12-28T13:44:52.622Z,5.30
2017-12-28T13:46:54.513Z,5.20
2017-12-28T13:48:55.706Z,5.20
2017-12-28T13:50:56.704Z,5.20
2017-12-28T13:52:58.411Z,5.30
2017-12-28T13:54:59.393Z,5.30
2017-12-28T13:57:00.378Z,5.20
2017-12-28T13:59:01.362Z,5.20
2017-12-28T14:01:02.302Z,5.20
2017-12-28T14:03:03.338Z,5.20
2017-12-28T14:05:04.270Z,5.20
2017-12-28T14:07:05.494Z,5.20
2017-12-28T14:09:06.464Z,5.20
2017-12-28T14:11:07.449Z,5.20
2017-12-28T14:13:08.434Z,5.20
2017-12-28T14:15:10.145Z,5.80
2017-12-28T14:17:11.114Z,5.80
2017-12-28T14:19:12.175Z,6.10
2017-12-28T14:21:13.122Z,5.80
2017-12-28T14:23:14.555Z,5.70
2017-12-28T14:25:15.536Z,5.80
2017-12-28T14:27:17.306Z,6.30
2017-12-28T14:29:19.012Z,6.40
2017-12-28T14:31:19.978Z,6.40
2017-12-28T14:33:20.978Z,6.50
2017-12-28T14:35:22.058Z,6.50
2017-12-28T14:37:23.031Z,6.40
2017-12-28T14:39:24.020Z,6.10
2017-12-28T14:41:24.982Z,6.00
2017-12-28T14:43:27.026Z,5.50
2017-12-28T14:45:27.973Z,5.30
2017-12-28T14:47:29.144Z,5.10
2017-12-28T14:49:30.140Z,4.80
2017-12-28T14:51:31.934Z,4.60
2017-12-28T14:53:32.904Z,4.60
2017-12-28T14:55:33.865Z,4.50
2017-12-28T14:57:34.805Z,4.40
2017-12-28T14:59:35.795Z,4.40
2017-12-28T15:01:36.725Z,4.30
2017-12-28T15:03:37.669Z,4.30
2017-12-28T15:05:38.642Z,4.30
2017-12-28T15:07:40.465Z,4.30
2017-12-28T15:09:41.482Z,4.30
2017-12-28T15:11:42.430Z,4.20
2017-12-28T15:13:43.370Z,4.20
2017-12-28T15:15:44.315Z,4.20
2017-12-28T15:17:45.266Z,4.20
2017-12-28T15:19:46.929Z,4.20
2017-12-28T15:21:47.910Z,4.20
2017-12-28T15:23:48.850Z,4.20
2017-12-28T15:25:49.794Z,4.20
2017-12-28T15:27:50.773Z,4.20
2017-12-28T15:29:51.820Z,4.20
2017-12-28T15:31:52.776Z,4.20
2017-12-28T15:33:53.732Z,4.20
2017-12-28T15:35:55.401Z,4.20
2017-12-28T15:37:56.378Z,4.20
2017-12-28T15:39:57.347Z,4.20
2017-12-28T15:41:58.286Z,4.20
2017-12-28T15:43:59.228Z,4.20
2017-12-28T15:46:00.203Z,4.20
2017-12-28T15:48:01.121Z,4.20
2017-12-28T15:50:02.052Z,4.20
2017-12-28T15:52:03.028Z,4.20
2017-12-28T15:54:03.962Z,4.20
2017-12-28T15:56:04.944Z,4.20
2017-12-28T15:58:06.630Z,4.20
2017-12-28T16:00:07.631Z,4.10
2017-12-28T16:02:08.570Z,4.20
2017-12-28T16:04:09.510Z,4.20
2017-12-28T16:06:10.459Z,4.10
2017-12-28T16:08:11.459Z,4.10
2017-12-28T16:10:12.382Z,4.10
2017-12-28T16:12:13.351Z,4.10
2017-12-28T16:14:14.274Z,4.10
2017-12-28T16:16:15.939Z,4.10
2017-12-28T16:18:17.037Z,4.10
2017-12-28T16:20:17.996Z,4.10
2017-12-28T16:22:19.667Z,4.00
2017-12-28T16:24:21.373Z,4.00
2017-12-28T16:26:22.309Z,4.00
2017-12-28T16:28:24.010Z,4.00
2017-12-28T16:30:24.946Z,4.00
2017-12-28T16:32:25.890Z,3.90
2017-12-28T16:34:26.816Z,3.90
2017-12-28T16:36:27.751Z,3.70
2017-12-28T16:38:28.665Z,3.70
2017-12-28T16:40:29.595Z,3.70
2017-12-28T16:42:30.558Z,3.60
2017-12-28T16:44:31.486Z,3.60
2017-12-28T16:46:32.442Z,3.50
2017-12-28T16:48:33.379Z,3.50
2017-12-28T16:50:34.410Z,3.50
2017-12-28T16:52:35.646Z,3.50
2017-12-28T16:54:36.610Z,3.40
2017-12-28T16:56:37.547Z,3.40
2017-12-28T16:58:38.483Z,3.40
2017-12-28T17:00:39.445Z,3.40
2017-12-28T17:02:40.415Z,3.40
2017-12-28T17:04:41.377Z,3.40
2017-12-28T17:06:42.305Z,3.40
2017-12-28T17:08:43.292Z,3.40
2017-12-28T17:10:44.231Z,3.40
2017-12-28T17:12:45.190Z,3.50
2017-12-28T17:14:46.135Z,3.40
2017-12-28T17:16:47.079Z,3.40
2017-12-28T17:18:48.027Z,3.40
2017-12-28T17:20:48.962Z,3.40
2017-12-28T17:22:49.916Z,3.40
2017-12-28T17:24:50.985Z,3.40
2017-12-28T17:26:51.997Z,3.40
2017-12-28T17:28:52.933Z,3.40
2017-12-28T17:30:54.617Z,3.40
2017-12-28T17:32:55.591Z,3.40
2017-12-28T17:34:56.628Z,3.40
2017-12-28T17:36:57.594Z,3.40
2017-12-28T17:38:58.563Z,3.40
2017-12-28T17:40:59.557Z,3.30
2017-12-28T17:43:01.204Z,3.30
2017-12-28T17:45:02.179Z,3.30
2017-12-28T17:47:03.137Z,3.30
2017-12-28T17:49:04.083Z,3.20
2017-12-28T17:51:05.033Z,3.20
2017-12-28T17:53:05.978Z,3.10
2017-12-28T17:55:06.921Z,3.10
2017-12-28T17:57:07.842Z,3.10
2017-12-28T17:59:09.518Z,3.10
2017-12-28T18:01:11.003Z,3.10
2017-12-28T18:03:11.950Z,3.10
2017-12-28T18:05:13.658Z,3.10
2017-12-28T18:07:14.586Z,3.10
2017-12-28T18:09:16.259Z,3.10
2017-12-28T18:11:17.198Z,3.10
2017-12-28T18:13:18.862Z,3.10
2017-12-28T18:15:19.806Z,3.10
2017-12-28T18:17:21.482Z,3.20
2017-12-28T18:19:22.437Z,3.20
2017-12-28T18:21:23.366Z,3.20
2017-12-28T18:23:24.301Z,3.20
2017-12-28T18:25:25.957Z,3.30
2017-12-28T18:27:27.692Z,3.30
2017-12-28T18:29:28.644Z,3.30
2017-12-28T18:31:29.587Z,3.30
2017-12-28T18:33:30.625Z,3.30
2017-12-28T18:35:32.335Z,3.30
2017-12-28T18:37:33.330Z,3.30
2017-12-28T18:39:34.273Z,3.30
2017-12-28T18:41:35.193Z,3.30
2017-12-28T18:43:36.180Z,3.30
2017-12-28T18:45:37.874Z,3.40
2017-12-28T18:47:38.841Z,3.40
2017-12-28T18:49:39.810Z,3.30
2017-12-28T18:51:40.784Z,3.30
2017-12-28T18:53:41.749Z,3.30
2017-12-28T18:55:43.407Z,3.40
2017-12-28T18:57:45.155Z,3.40
2017-12-28T18:59:46.097Z,3.30
2017-12-28T19:01:47.096Z,3.40
2017-12-28T19:03:48.066Z,3.40
2017-12-28T19:05:49.023Z,3.40
2017-12-28T19:07:50.043Z,3.40
2017-12-28T19:09:50.990Z,3.40
2017-12-28T19:11:51.945Z,3.40
2017-12-28T19:13:52.853Z,3.40
2017-12-28T19:15:54.645Z,3.40
2017-12-28T19:17:56.549Z,3.40
2017-12-28T19:19:58.288Z,3.40
2017-12-28T19:21:59.246Z,3.40
2017-12-28T19:24:00.197Z,3.40
2017-12-28T19:26:01.306Z,3.40
2017-12-28T19:28:02.440Z,3.40
2017-12-28T19:30:03.430Z,3.40
2017-12-28T19:32:04.365Z,3.40
2017-12-28T19:34:05.300Z,3.40
2017-12-28T19:36:06.280Z,3.40
2017-12-28T19:38:08.864Z,3.40
2017-12-28T19:40:09.867Z,3.40
2017-12-28T19:42:10.803Z,3.40
2017-12-28T19:44:11.924Z,3.40
2017-12-28T19:46:13.626Z,3.40
2017-12-28T19:48:14.622Z,3.40
2017-12-28T19:50:15.589Z,3.40
2017-12-28T19:52:16.534Z,3.40
2017-12-28T19:54:17.475Z,3.40
2017-12-28T19:56:20.156Z,3.40
2017-12-28T19:58:21.114Z,3.40
2017-12-28T20:00:22.795Z,3.40
2017-12-28T20:02:23.747Z,3.40
2017-12-28T20:04:24.742Z,3.40
2017-12-28T20:06:25.807Z,3.40
2017-12-28T20:08:27.502Z,3.40
2017-12-28T20:10:28.437Z,3.40
2017-12-28T20:12:30.403Z,3.40
2017-12-28T20:14:32.087Z,3.40
2017-12-28T20:16:33.084Z,3.40
2017-12-28T20:18:34.019Z,3.40
2017-12-28T20:20:35.299Z,3.40
2017-12-28T20:22:37.018Z,3.40
2017-12-28T20:24:37.989Z,3.40
2017-12-28T20:26:38.988Z,3.40
2017-12-28T20:28:40.008Z,3.40
2017-12-28T20:30:41.786Z,3.40
2017-12-28T20:32:42.751Z,3.30
2017-12-28T20:34:43.675Z,3.40
2017-12-28T20:36:45.378Z,3.40
2017-12-28T20:38:46.386Z,3.40
2017-12-28T20:40:47.357Z,3.40
2017-12-28T20:42:48.314Z,3.40
2017-12-28T20:44:49.259Z,3.40
2017-12-28T20:46:50.225Z,3.30
2017-12-28T20:48:51.184Z,3.30
2017-12-28T20:50:52.113Z,3.30
2017-12-28T20:52:53.214Z,3.30
2017-12-28T20:54:54.134Z,3.30
2017-12-28T20:56:55.068Z,3.30
2017-12-28T20:58:56.037Z,3.30
2017-12-28T21:00:57.720Z,3.30
2017-12-28T21:02:58.673Z,3.30
2017-12-28T21:04:59.592Z,3.30
2017-12-28T21:07:01.284Z,3.30
2017-12-28T21:09:03.058Z,3.30
2017-12-28T21:11:04.007Z,3.30
2017-12-28T21:13:04.935Z,3.30
2017-12-28T21:15:05.902Z,3.30
2017-12-28T21:17:06.841Z,3.30
2017-12-28T21:19:07.829Z,3.30
2017-12-28T21:21:08.769Z,3.30
2017-12-28T21:23:09.777Z,3.30
2017-12-28T21:25:11.542Z,3.30
2017-12-28T21:27:12.509Z,3.30
2017-12-28T21:29:13.522Z,3.30
2017-12-28T21:31:14.600Z,3.30
2017-12-28T21:33:15.699Z,3.30
2017-12-28T21:35:17.312Z,3.30
2017-12-28T21:37:18.309Z,3.30
2017-12-28T21:39:19.391Z,3.30
2017-12-28T21:41:20.366Z,3.30
2017-12-28T21:43:21.311Z,3.30
2017-12-28T21:45:23.439Z,3.30
2017-12-28T21:47:24.562Z,3.30
2017-12-28T21:49:25.521Z,3.30
2017-12-28T21:51:28.652Z,3.30
2017-12-28T21:53:29.604Z,3.30
2017-12-28T21:55:30.597Z,3.30
2017-12-28T21:57:32.372Z,3.30
2017-12-28T21:59:33.423Z,3.20
2017-12-28T22:01:34.428Z,3.30
2017-12-28T22:03:35.391Z,3.30
2017-12-28T22:05:36.383Z,3.30
2017-12-28T22:07:37.488Z,3.30
2017-12-28T22:09:38.423Z,3.20
2017-12-28T22:11:39.378Z,3.20
2017-12-28T22:13:41.080Z,3.20
2017-12-28T22:15:42.054Z,3.20
2017-12-28T22:17:43.111Z,3.20
2017-12-28T22:19:44.069Z,3.20
2017-12-28T22:21:45.134Z,3.20
2017-12-28T22:23:46.998Z,3.30
2017-12-28T22:25:48.833Z,3.30
2017-12-28T22:27:49.784Z,3.20
2017-12-28T22:29:50.723Z,3.30
2017-12-28T22:31:51.713Z,3.30
2017-12-28T22:33:53.618Z,3.30
2017-12-28T22:35:54.572Z,3.30
2017-12-28T22:37:55.523Z,3.30
2017-12-28T22:39:56.494Z,3.30
2017-12-28T22:41:57.434Z,3.30
2017-12-28T22:43:58.425Z,3.30
2017-12-28T22:45:59.451Z,3.30
2017-12-28T22:48:01.135Z,3.20
2017-12-28T22:50:02.137Z,3.20
2017-12-28T22:52:03.227Z,3.20
2017-12-28T22:54:04.458Z,3.20
2017-12-28T22:56:05.409Z,3.10
2017-12-28T22:58:07.133Z,3.10
2017-12-28T23:00:08.209Z,3.10
2017-12-28T23:02:09.936Z,3.10
2017-12-28T23:04:11.000Z,3.10
2017-12-28T23:06:11.943Z,3.10
2017-12-28T23:08:12.906Z,3.00
2017-12-28T23:10:14.669Z,3.00
2017-12-28T23:12:15.677Z,3.00
2017-12-28T23:14:16.632Z,3.00
2017-12-28T23:16:17.776Z,2.90
2017-12-28T23:18:18.738Z,2.90
2017-12-28T23:20:19.735Z,2.90
2017-12-28T23:22:20.710Z,2.80
2017-12-28T23:24:21.774Z,2.80
2017-12-28T23:26:22.772Z,2.80
2017-12-28T23:28:23.842Z,2.80
2017-12-28T23:30:24.867Z,2.80
2017-12-28T23:32:26.549Z,2.80
2017-12-28T23:34:27.651Z,2.80
2017-12-28T23:36:29.341Z,2.70
2017-12-28T23:38:31.066Z,2.70
2017-12-28T23:40:32.195Z,2.70
2017-12-28T23:42:33.189Z,2.80
2017-12-28T23:44:34.164Z,2.80
2017-12-28T23:46:35.162Z,2.80
2017-12-28T23:48:36.174Z,2.80
2017-12-28T23:50:37.164Z,2.80
2017-12-28T23:52:38.310Z,2.80
2017-12-28T23:54:40.047Z,2.80
2017-12-28T23:56:41.345Z,2.80
2017-12-28T23:58:42.350Z,2.80
